sensor_id;sensor_type;location;lat;lon;timestamp;pressure;altitude;pressure_sealevel;temperature;humidity
74075;BME280;62428;51.412;5.432;2022-10-12T00:02:23;102370.22;;;6.36;79.59
74075;BME280;62428;51.412;5.432;2022-10-12T00:04:48;102375.91;;;6.40;79.38
74075;BME280;62428;51.412;5.432;2022-10-12T00:07:14;102370.34;;;6.41;79.33
74075;BME280;62428;51.412;5.432;2022-10-12T00:09:39;102365.81;;;6.42;79.35
74075;BME280;62428;51.412;5.432;2022-10-12T00:12:05;102371.16;;;6.42;79.30
74075;BME280;62428;51.412;5.432;2022-10-12T00:14:30;102372.22;;;6.41;79.50
74075;BME280;62428;51.412;5.432;2022-10-12T00:16:59;102359.09;;;6.39;79.45
74075;BME280;62428;51.412;5.432;2022-10-12T00:19:24;102372.66;;;6.38;79.15
74075;BME280;62428;51.412;5.432;2022-10-12T00:21:49;102371.00;;;6.37;79.85
74075;BME280;62428;51.412;5.432;2022-10-12T00:24:15;102365.09;;;6.34;79.79
74075;BME280;62428;51.412;5.432;2022-10-12T00:26:40;102378.06;;;6.31;80.34
74075;BME280;62428;51.412;5.432;2022-10-12T00:29:05;102369.13;;;6.25;80.03
74075;BME280;62428;51.412;5.432;2022-10-12T00:31:31;102365.50;;;6.20;80.05
74075;BME280;62428;51.412;5.432;2022-10-12T00:33:59;102363.59;;;6.08;80.65
74075;BME280;62428;51.412;5.432;2022-10-12T00:36:27;102367.88;;;6.09;80.47
74075;BME280;62428;51.412;5.432;2022-10-12T00:38:55;102368.44;;;6.11;80.56
74075;BME280;62428;51.412;5.432;2022-10-12T00:41:24;102355.09;;;6.11;80.41
74075;BME280;62428;51.412;5.432;2022-10-12T00:43:50;102364.16;;;6.10;80.20
74075;BME280;62428;51.412;5.432;2022-10-12T00:46:27;102359.06;;;6.09;80.54
74075;BME280;62428;51.412;5.432;2022-10-12T00:49:19;102357.19;;;6.09;79.98
74075;BME280;62428;51.412;5.432;2022-10-12T00:51:48;102366.03;;;6.10;80.40
74075;BME280;62428;51.412;5.432;2022-10-12T00:54:20;102363.13;;;6.11;80.30
74075;BME280;62428;51.412;5.432;2022-10-12T00:56:47;102369.06;;;6.13;80.86
74075;BME280;62428;51.412;5.432;2022-10-12T00:59:21;102367.66;;;6.11;80.47
74075;BME280;62428;51.412;5.432;2022-10-12T01:01:48;102373.19;;;6.09;80.96
74075;BME280;62428;51.412;5.432;2022-10-12T01:04:14;102372.97;;;6.11;80.85
74075;BME280;62428;51.412;5.432;2022-10-12T01:06:40;102378.31;;;6.11;80.62
74075;BME280;62428;51.412;5.432;2022-10-12T01:09:05;102367.44;;;6.12;80.97
74075;BME280;62428;51.412;5.432;2022-10-12T01:11:30;102364.53;;;6.14;81.18
74075;BME280;62428;51.412;5.432;2022-10-12T01:13:56;102359.78;;;6.16;81.01
74075;BME280;62428;51.412;5.432;2022-10-12T01:16:52;102360.38;;;6.18;80.58
74075;BME280;62428;51.412;5.432;2022-10-12T01:22:08;102349.25;;;6.21;81.13
74075;BME280;62428;51.412;5.432;2022-10-12T01:35:09;102339.97;;;6.24;81.74
74075;BME280;62428;51.412;5.432;2022-10-12T01:40:36;102330.34;;;6.23;81.16
74075;BME280;62428;51.412;5.432;2022-10-12T01:43:04;102331.81;;;6.19;82.06
74075;BME280;62428;51.412;5.432;2022-10-12T01:45:29;102319.75;;;6.16;82.04
74075;BME280;62428;51.412;5.432;2022-10-12T01:47:54;102324.06;;;6.17;82.50
74075;BME280;62428;51.412;5.432;2022-10-12T01:50:24;102327.53;;;6.18;82.27
74075;BME280;62428;51.412;5.432;2022-10-12T01:55:48;102318.25;;;6.20;82.25
74075;BME280;62428;51.412;5.432;2022-10-12T01:58:25;102324.66;;;6.19;81.79
74075;BME280;62428;51.412;5.432;2022-10-12T02:04:02;102310.47;;;6.19;81.71
74075;BME280;62428;51.412;5.432;2022-10-12T02:06:37;102309.66;;;6.18;81.66
74075;BME280;62428;51.412;5.432;2022-10-12T02:09:13;102313.84;;;6.14;81.81
74075;BME280;62428;51.412;5.432;2022-10-12T02:11:41;102307.91;;;6.12;81.98
74075;BME280;62428;51.412;5.432;2022-10-12T02:14:14;102311.25;;;6.07;81.88
74075;BME280;62428;51.412;5.432;2022-10-12T02:16:48;102309.03;;;6.04;81.82
74075;BME280;62428;51.412;5.432;2022-10-12T02:19:18;102305.31;;;6.05;82.26
74075;BME280;62428;51.412;5.432;2022-10-12T02:21:46;102294.19;;;6.08;82.25
74075;BME280;62428;51.412;5.432;2022-10-12T02:24:14;102302.00;;;6.10;81.88
74075;BME280;62428;51.412;5.432;2022-10-12T02:26:43;102303.00;;;6.09;81.79
74075;BME280;62428;51.412;5.432;2022-10-12T02:29:24;102296.88;;;6.08;81.68
74075;BME280;62428;51.412;5.432;2022-10-12T02:31:55;102299.19;;;6.05;81.70
74075;BME280;62428;51.412;5.432;2022-10-12T02:34:45;102301.25;;;6.03;81.31
74075;BME280;62428;51.412;5.432;2022-10-12T02:39:51;102301.16;;;5.91;82.34
74075;BME280;62428;51.412;5.432;2022-10-12T02:42:39;102297.25;;;5.93;81.85
74075;BME280;62428;51.412;5.432;2022-10-12T02:45:07;102294.78;;;5.92;82.01
74075;BME280;62428;51.412;5.432;2022-10-12T02:47:35;102299.31;;;5.91;82.05
74075;BME280;62428;51.412;5.432;2022-10-12T02:50:02;102297.69;;;5.90;81.70
74075;BME280;62428;51.412;5.432;2022-10-12T02:52:32;102297.69;;;5.90;81.66
74075;BME280;62428;51.412;5.432;2022-10-12T02:54:58;102291.97;;;5.87;81.97
74075;BME280;62428;51.412;5.432;2022-10-12T02:57:24;102290.34;;;5.86;82.01
74075;BME280;62428;51.412;5.432;2022-10-12T02:59:49;102288.34;;;5.81;81.82
74075;BME280;62428;51.412;5.432;2022-10-12T03:02:14;102288.00;;;5.77;81.51
74075;BME280;62428;51.412;5.432;2022-10-12T03:04:40;102286.34;;;5.76;81.61
74075;BME280;62428;51.412;5.432;2022-10-12T03:07:05;102286.34;;;5.76;81.35
74075;BME280;62428;51.412;5.432;2022-10-12T03:09:30;102283.09;;;5.74;81.45
74075;BME280;62428;51.412;5.432;2022-10-12T03:11:56;102277.97;;;5.73;81.03
74075;BME280;62428;51.412;5.432;2022-10-12T03:14:21;102280.28;;;5.69;81.53
74075;BME280;62428;51.412;5.432;2022-10-12T03:16:47;102280.75;;;5.66;81.50
74075;BME280;62428;51.412;5.432;2022-10-12T03:19:13;102276.66;;;5.64;81.12
74075;BME280;62428;51.412;5.432;2022-10-12T03:21:38;102269.94;;;5.61;81.60
74075;BME280;62428;51.412;5.432;2022-10-12T03:24:03;102272.22;;;5.57;81.12
74075;BME280;62428;51.412;5.432;2022-10-12T03:26:29;102277.19;;;5.54;81.15
74075;BME280;62428;51.412;5.432;2022-10-12T03:28:54;102267.78;;;5.51;81.54
74075;BME280;62428;51.412;5.432;2022-10-12T03:31:19;102265.34;;;5.50;81.27
74075;BME280;62428;51.412;5.432;2022-10-12T03:33:45;102275.41;;;5.48;81.13
74075;BME280;62428;51.412;5.432;2022-10-12T03:36:10;102273.19;;;5.45;81.40
74075;BME280;62428;51.412;5.432;2022-10-12T03:38:35;102274.88;;;5.39;81.27
74075;BME280;62428;51.412;5.432;2022-10-12T03:41:01;102270.78;;;5.36;81.53
74075;BME280;62428;51.412;5.432;2022-10-12T03:43:26;102272.66;;;5.36;81.44
74075;BME280;62428;51.412;5.432;2022-10-12T03:45:52;102272.06;;;5.34;81.07
74075;BME280;62428;51.412;5.432;2022-10-12T03:48:18;102281.34;;;5.31;81.36
74075;BME280;62428;51.412;5.432;2022-10-12T03:50:50;102277.03;;;5.30;81.07
74075;BME280;62428;51.412;5.432;2022-10-12T03:53:16;102269.72;;;5.26;81.21
74075;BME280;62428;51.412;5.432;2022-10-12T03:55:42;102270.94;;;5.23;81.31
74075;BME280;62428;51.412;5.432;2022-10-12T03:58:07;102265.03;;;5.21;81.13
74075;BME280;62428;51.412;5.432;2022-10-12T04:00:32;102266.66;;;5.22;80.73
74075;BME280;62428;51.412;5.432;2022-10-12T04:02:58;102264.22;;;5.20;81.03
74075;BME280;62428;51.412;5.432;2022-10-12T04:05:23;102261.34;;;5.22;81.29
74075;BME280;62428;51.412;5.432;2022-10-12T04:07:49;102253.78;;;5.19;80.62
74075;BME280;62428;51.412;5.432;2022-10-12T04:10:15;102257.69;;;5.16;80.42
74075;BME280;62428;51.412;5.432;2022-10-12T04:12:40;102261.81;;;5.12;80.84
74075;BME280;62428;51.412;5.432;2022-10-12T04:15:06;102259.25;;;5.06;81.33
74075;BME280;62428;51.412;5.432;2022-10-12T04:17:31;102254.94;;;5.05;81.56
74075;BME280;62428;51.412;5.432;2022-10-12T04:19:56;102255.97;;;5.04;81.46
74075;BME280;62428;51.412;5.432;2022-10-12T04:22:22;102255.97;;;5.04;81.45
74075;BME280;62428;51.412;5.432;2022-10-12T04:24:50;102255.38;;;5.01;81.55
74075;BME280;62428;51.412;5.432;2022-10-12T04:27:16;102256.84;;;4.97;81.71
74075;BME280;62428;51.412;5.432;2022-10-12T04:29:41;102255.44;;;4.95;82.08
74075;BME280;62428;51.412;5.432;2022-10-12T04:32:07;102260.53;;;4.96;81.98
74075;BME280;62428;51.412;5.432;2022-10-12T04:34:33;102251.53;;;4.97;81.96
74075;BME280;62428;51.412;5.432;2022-10-12T04:37:00;102255.00;;;4.98;82.35
74075;BME280;62428;51.412;5.432;2022-10-12T04:39:25;102256.63;;;4.99;82.48
74075;BME280;62428;51.412;5.432;2022-10-12T04:41:50;102251.31;;;4.99;81.84
74075;BME280;62428;51.412;5.432;2022-10-12T04:44:16;102255.59;;;5.00;82.15
74075;BME280;62428;51.412;5.432;2022-10-12T04:46:41;102244.72;;;5.01;81.60
74075;BME280;62428;51.412;5.432;2022-10-12T04:49:06;102247.38;;;5.01;81.74
74075;BME280;62428;51.412;5.432;2022-10-12T04:51:32;102258.50;;;4.98;81.50
74075;BME280;62428;51.412;5.432;2022-10-12T04:53:57;102258.72;;;4.97;81.78
74075;BME280;62428;51.412;5.432;2022-10-12T04:56:22;102266.69;;;4.97;81.74
74075;BME280;62428;51.412;5.432;2022-10-12T04:58:48;102263.81;;;4.98;82.12
74075;BME280;62428;51.412;5.432;2022-10-12T05:01:13;102265.66;;;4.98;82.04
74075;BME280;62428;51.412;5.432;2022-10-12T05:03:39;102259.94;;;4.94;82.27
74075;BME280;62428;51.412;5.432;2022-10-12T05:06:04;102266.31;;;4.93;82.42
74075;BME280;62428;51.412;5.432;2022-10-12T05:08:29;102258.31;;;4.93;82.05
74075;BME280;62428;51.412;5.432;2022-10-12T05:10:55;102254.84;;;4.93;82.41
74075;BME280;62428;51.412;5.432;2022-10-12T05:13:23;102256.91;;;4.91;81.80
74075;BME280;62428;51.412;5.432;2022-10-12T05:15:49;102250.97;;;4.89;82.02
74075;BME280;62428;51.412;5.432;2022-10-12T05:18:15;102251.19;;;4.87;81.55
74075;BME280;62428;51.412;5.432;2022-10-12T05:20:40;102254.09;;;4.86;81.63
74075;BME280;62428;51.412;5.432;2022-10-12T05:23:05;102254.75;;;4.81;81.94
74075;BME280;62428;51.412;5.432;2022-10-12T05:25:31;102238.16;;;4.79;81.51
74075;BME280;62428;51.412;5.432;2022-10-12T05:27:56;102241.03;;;4.77;81.59
74075;BME280;62428;51.412;5.432;2022-10-12T05:30:22;102234.09;;;4.76;81.38
74075;BME280;62428;51.412;5.432;2022-10-12T05:32:48;102236.97;;;4.75;82.17
74075;BME280;62428;51.412;5.432;2022-10-12T05:35:14;102235.34;;;4.74;82.32
74075;BME280;62428;51.412;5.432;2022-10-12T05:37:39;102234.16;;;4.70;82.28
74075;BME280;62428;51.412;5.432;2022-10-12T05:40:06;102232.88;;;4.72;82.09
74075;BME280;62428;51.412;5.432;2022-10-12T05:42:31;102237.19;;;4.73;82.25
74075;BME280;62428;51.412;5.432;2022-10-12T05:44:58;102234.53;;;4.73;82.09
74075;BME280;62428;51.412;5.432;2022-10-12T05:47:24;102239.84;;;4.73;82.05
74075;BME280;62428;51.412;5.432;2022-10-12T05:49:49;102241.47;;;4.74;82.63
74075;BME280;62428;51.412;5.432;2022-10-12T05:52:15;102242.31;;;4.75;83.15
74075;BME280;62428;51.412;5.432;2022-10-12T05:54:40;102234.31;;;4.75;83.24
74075;BME280;62428;51.412;5.432;2022-10-12T05:57:05;102239.66;;;4.75;83.18
74075;BME280;62428;51.412;5.432;2022-10-12T05:59:31;102233.72;;;4.73;83.25
74075;BME280;62428;51.412;5.432;2022-10-12T06:01:56;102233.72;;;4.73;83.34
74075;BME280;62428;51.412;5.432;2022-10-12T06:04:21;102240.88;;;4.72;83.49
74075;BME280;62428;51.412;5.432;2022-10-12T06:06:47;102242.31;;;4.75;83.52
74075;BME280;62428;51.412;5.432;2022-10-12T06:09:12;102237.56;;;4.77;83.15
74075;BME280;62428;51.412;5.432;2022-10-12T06:11:38;102244.50;;;4.78;83.10
74075;BME280;62428;51.412;5.432;2022-10-12T06:14:03;102240.03;;;4.78;83.58
74075;BME280;62428;51.412;5.432;2022-10-12T06:16:29;102245.09;;;4.80;83.40
74075;BME280;62428;51.412;5.432;2022-10-12T06:18:54;102243.06;;;4.82;83.73
74075;BME280;62428;51.412;5.432;2022-10-12T06:21:19;102242.00;;;4.83;83.35
74075;BME280;62428;51.412;5.432;2022-10-12T06:23:45;102242.81;;;4.84;83.61
74075;BME280;62428;51.412;5.432;2022-10-12T06:26:10;102239.94;;;4.85;83.54
74075;BME280;62428;51.412;5.432;2022-10-12T06:28:35;102237.88;;;4.87;83.72
74075;BME280;62428;51.412;5.432;2022-10-12T06:31:01;102240.31;;;4.89;83.65
74075;BME280;62428;51.412;5.432;2022-10-12T06:33:27;102236.44;;;4.91;84.12
74075;BME280;62428;51.412;5.432;2022-10-12T06:35:54;102239.50;;;4.88;84.00
74075;BME280;62428;51.412;5.432;2022-10-12T06:38:19;102238.94;;;4.86;84.27
74075;BME280;62428;51.412;5.432;2022-10-12T06:40:45;102240.78;;;4.86;84.03
74075;BME280;62428;51.412;5.432;2022-10-12T06:43:10;102245.06;;;4.87;84.52
74075;BME280;62428;51.412;5.432;2022-10-12T06:45:36;102240.53;;;4.87;84.24
74075;BME280;62428;51.412;5.432;2022-10-12T06:48:02;102245.44;;;4.90;84.19
74075;BME280;62428;51.412;5.432;2022-10-12T06:50:27;102247.47;;;4.95;84.20
74075;BME280;62428;51.412;5.432;2022-10-12T06:52:53;102248.06;;;4.97;84.72
74075;BME280;62428;51.412;5.432;2022-10-12T06:55:18;102238.41;;;4.96;84.83
74075;BME280;62428;51.412;5.432;2022-10-12T06:57:44;102236.56;;;4.96;84.70
74075;BME280;62428;51.412;5.432;2022-10-12T07:00:10;102239.00;;;4.98;84.94
74075;BME280;62428;51.412;5.432;2022-10-12T07:02:36;102235.69;;;5.03;85.02
74075;BME280;62428;51.412;5.432;2022-10-12T07:05:02;102236.06;;;5.06;85.01
74075;BME280;62428;51.412;5.432;2022-10-12T07:07:31;102239.91;;;5.10;85.07
74075;BME280;62428;51.412;5.432;2022-10-12T07:09:57;102236.81;;;5.13;85.04
74075;BME280;62428;51.412;5.432;2022-10-12T07:12:22;102236.72;;;5.20;84.71
74075;BME280;62428;51.412;5.432;2022-10-12T07:14:48;102246.38;;;5.21;84.58
74075;BME280;62428;51.412;5.432;2022-10-12T07:17:13;102236.31;;;5.23;84.78
74075;BME280;62428;51.412;5.432;2022-10-12T07:19:38;102240.97;;;5.28;84.71
74075;BME280;62428;51.412;5.432;2022-10-12T07:22:04;102235.66;;;5.28;84.72
74075;BME280;62428;51.412;5.432;2022-10-12T07:24:29;102236.03;;;5.31;84.68
74075;BME280;62428;51.412;5.432;2022-10-12T07:27:03;102233.72;;;5.35;84.54
74075;BME280;62428;51.412;5.432;2022-10-12T07:29:32;102230.00;;;5.36;84.28
74075;BME280;62428;51.412;5.432;2022-10-12T07:31:58;102228.41;;;5.35;84.21
74075;BME280;62428;51.412;5.432;2022-10-12T07:34:24;102234.53;;;5.35;84.41
74075;BME280;62428;51.412;5.432;2022-10-12T07:36:50;102236.16;;;5.36;84.76
74075;BME280;62428;51.412;5.432;2022-10-12T07:39:15;102234.31;;;5.37;84.61
74075;BME280;62428;51.412;5.432;2022-10-12T07:41:41;102240.03;;;5.41;84.84
74075;BME280;62428;51.412;5.432;2022-10-12T07:44:06;102246.16;;;5.41;84.59
74075;BME280;62428;51.412;5.432;2022-10-12T07:46:32;102241.41;;;5.43;84.74
74075;BME280;62428;51.412;5.432;2022-10-12T07:48:58;102243.44;;;5.48;84.59
74075;BME280;62428;51.412;5.432;2022-10-12T07:51:24;102243.31;;;5.54;84.42
74075;BME280;62428;51.412;5.432;2022-10-12T07:53:49;102249.25;;;5.56;83.82
74075;BME280;62428;51.412;5.432;2022-10-12T07:56:15;102254.16;;;5.59;84.46
74075;BME280;62428;51.412;5.432;2022-10-12T07:58:54;102251.41;;;5.66;84.53
74075;BME280;62428;51.412;5.432;2022-10-12T08:01:21;102253.69;;;5.81;84.57
74075;BME280;62428;51.412;5.432;2022-10-12T08:03:48;102251.81;;;6.00;84.10
74075;BME280;62428;51.412;5.432;2022-10-12T08:06:16;102259.19;;;6.16;83.92
74075;BME280;62428;51.412;5.432;2022-10-12T08:08:43;102255.50;;;6.29;83.47
74075;BME280;62428;51.412;5.432;2022-10-12T08:11:08;102255.31;;;6.43;83.50
74075;BME280;62428;51.412;5.432;2022-10-12T08:13:35;102259.16;;;6.59;82.82
74075;BME280;62428;51.412;5.432;2022-10-12T08:16:02;102249.31;;;6.71;83.00
74075;BME280;62428;51.412;5.432;2022-10-12T08:18:28;102260.13;;;6.88;82.63
74075;BME280;62428;51.412;5.432;2022-10-12T08:20:53;102252.13;;;7.00;82.71
74075;BME280;62428;51.412;5.432;2022-10-12T08:23:19;102258.28;;;7.12;82.17
74075;BME280;62428;51.412;5.432;2022-10-12T08:25:59;102248.28;;;7.19;82.13
74075;BME280;62428;51.412;5.432;2022-10-12T08:28:25;102246.53;;;7.25;81.86
74075;BME280;62428;51.412;5.432;2022-10-12T08:30:50;102247.47;;;7.30;82.04
74075;BME280;62428;51.412;5.432;2022-10-12T08:33:16;102246.97;;;7.34;81.75
74075;BME280;62428;51.412;5.432;2022-10-12T08:35:43;102251.28;;;7.35;82.14
74075;BME280;62428;51.412;5.432;2022-10-12T08:38:09;102251.50;;;7.33;82.33
74075;BME280;62428;51.412;5.432;2022-10-12T08:43:59;102244.91;;;7.36;82.86
74075;BME280;62428;51.412;5.432;2022-10-12T08:46:21;102248.94;;;7.38;82.93
74075;BME280;62428;51.412;5.432;2022-10-12T08:51:26;102243.09;;;7.53;83.15
74075;BME280;62428;51.412;5.432;2022-10-12T08:54:01;102241.44;;;7.64;83.55
74075;BME280;62428;51.412;5.432;2022-10-12T08:56:27;102246.16;;;7.74;82.96
74075;BME280;62428;51.412;5.432;2022-10-12T08:58:53;102237.78;;;7.82;82.93
74075;BME280;62428;51.412;5.432;2022-10-12T09:01:36;102242.25;;;7.93;82.29
74075;BME280;62428;51.412;5.432;2022-10-12T09:06:56;102247.75;;;8.15;81.99
74075;BME280;62428;51.412;5.432;2022-10-12T09:09:34;102245.81;;;8.27;81.22
74075;BME280;62428;51.412;5.432;2022-10-12T09:12:14;102254.63;;;8.40;81.50
74075;BME280;62428;51.412;5.432;2022-10-12T09:14:42;102255.34;;;8.52;81.73
74075;BME280;62428;51.412;5.432;2022-10-12T09:17:34;102256.56;;;8.61;80.41
74075;BME280;62428;51.412;5.432;2022-10-12T09:20:25;102261.78;;;8.68;80.59
74075;BME280;62428;51.412;5.432;2022-10-12T09:23:25;102255.44;;;8.74;80.40
74075;BME280;62428;51.412;5.432;2022-10-12T09:25:56;102258.53;;;8.83;79.94
74075;BME280;62428;51.412;5.432;2022-10-12T09:28:33;102258.44;;;8.95;81.17
74075;BME280;62428;51.412;5.432;2022-10-12T09:33:52;102254.41;;;9.14;79.99
74075;BME280;62428;51.412;5.432;2022-10-12T09:36:20;102256.69;;;9.22;80.20
74075;BME280;62428;51.412;5.432;2022-10-12T09:38:47;102252.75;;;9.30;77.96
74075;BME280;62428;51.412;5.432;2022-10-12T09:41:33;102251.50;;;9.38;78.54
74075;BME280;62428;51.412;5.432;2022-10-12T09:44:00;102244.91;;;9.46;78.38
74075;BME280;62428;51.412;5.432;2022-10-12T09:46:40;102251.72;;;9.53;77.53
74075;BME280;62428;51.412;5.432;2022-10-12T09:49:07;102257.72;;;9.60;78.36
74075;BME280;62428;51.412;5.432;2022-10-12T09:51:32;102243.78;;;9.63;76.36
74075;BME280;62428;51.412;5.432;2022-10-12T09:53:59;102243.59;;;9.70;77.15
74075;BME280;62428;51.412;5.432;2022-10-12T09:56:48;102240.72;;;9.77;76.77
74075;BME280;62428;51.412;5.432;2022-10-12T09:59:27;102232.19;;;9.85;76.59
74075;BME280;62428;51.412;5.432;2022-10-12T10:04:24;102233.44;;;9.99;75.79
74075;BME280;62428;51.412;5.432;2022-10-12T10:06:50;102221.66;;;10.06;75.62
74075;BME280;62428;51.412;5.432;2022-10-12T10:09:32;102226.03;;;10.12;76.09
74075;BME280;62428;51.412;5.432;2022-10-12T10:12:12;102217.50;;;10.20;76.04
74075;BME280;62428;51.412;5.432;2022-10-12T10:14:41;102210.59;;;10.29;75.19
74075;BME280;62428;51.412;5.432;2022-10-12T10:17:08;102215.53;;;10.37;76.08
74075;BME280;62428;51.412;5.432;2022-10-12T10:19:37;102218.81;;;10.45;74.79
74075;BME280;62428;51.412;5.432;2022-10-12T10:22:04;102222.66;;;10.54;73.95
74075;BME280;62428;51.412;5.432;2022-10-12T10:24:32;102226.47;;;10.63;74.46
74075;BME280;62428;51.412;5.432;2022-10-12T10:27:05;102217.91;;;10.71;74.95
74075;BME280;62428;51.412;5.432;2022-10-12T10:32:13;102220.97;;;10.85;74.33
74075;BME280;62428;51.412;5.432;2022-10-12T10:34:40;102218.84;;;10.87;74.53
74075;BME280;62428;51.412;5.432;2022-10-12T10:37:13;102221.31;;;10.94;74.09
74075;BME280;62428;51.412;5.432;2022-10-12T10:39:50;102222.09;;;10.94;73.68
74075;BME280;62428;51.412;5.432;2022-10-12T10:42:27;102223.47;;;10.97;74.54
74075;BME280;62428;51.412;5.432;2022-10-12T10:44:58;102214.63;;;11.02;75.06
74075;BME280;62428;51.412;5.432;2022-10-12T10:47:24;102217.06;;;11.03;75.65
74075;BME280;62428;51.412;5.432;2022-10-12T10:49:54;102207.13;;;11.09;73.72
74075;BME280;62428;51.412;5.432;2022-10-12T10:54:46;102204.72;;;11.12;72.88
74075;BME280;62428;51.412;5.432;2022-10-12T10:57:17;102213.38;;;11.20;71.65
74075;BME280;62428;51.412;5.432;2022-10-12T11:00:03;102206.94;;;11.26;72.36
74075;BME280;62428;51.412;5.432;2022-10-12T11:02:36;102201.56;;;11.31;71.91
74075;BME280;62428;51.412;5.432;2022-10-12T11:05:33;102197.00;;;11.37;72.94
74075;BME280;62428;51.412;5.432;2022-10-12T11:08:03;102179.25;;;11.41;71.02
74075;BME280;62428;51.412;5.432;2022-10-12T11:10:43;102172.84;;;11.47;71.23
74075;BME280;62428;51.412;5.432;2022-10-12T11:13:16;102177.16;;;11.53;72.62
74075;BME280;62428;51.412;5.432;2022-10-12T11:15:53;102170.16;;;11.57;71.79
74075;BME280;62428;51.412;5.432;2022-10-12T11:18:29;102169.91;;;11.59;70.88
74075;BME280;62428;51.412;5.432;2022-10-12T11:21:23;102169.13;;;11.63;71.72
74075;BME280;62428;51.412;5.432;2022-10-12T11:24:02;102166.72;;;11.72;70.99
74075;BME280;62428;51.412;5.432;2022-10-12T11:26:44;102160.25;;;11.83;69.87
74075;BME280;62428;51.412;5.432;2022-10-12T11:29:12;102153.03;;;11.94;66.88
74075;BME280;62428;51.412;5.432;2022-10-12T11:31:49;102151.69;;;12.07;69.09
74075;BME280;62428;51.412;5.432;2022-10-12T11:34:19;102148.44;;;12.15;68.32
74075;BME280;62428;51.412;5.432;2022-10-12T11:36:49;102142.78;;;12.22;66.67
74075;BME280;62428;51.412;5.432;2022-10-12T11:39:33;102148.72;;;12.34;69.74
74075;BME280;62428;51.412;5.432;2022-10-12T11:42:10;102136.84;;;12.40;66.25
74075;BME280;62428;51.412;5.432;2022-10-12T11:44:40;102130.06;;;12.53;68.10
74075;BME280;62428;51.412;5.432;2022-10-12T11:49:56;102125.41;;;12.79;64.60
74075;BME280;62428;51.412;5.432;2022-10-12T11:52:24;102123.47;;;12.95;64.16
74075;BME280;62428;51.412;5.432;2022-10-12T11:54:59;102132.06;;;13.07;67.07
74075;BME280;62428;51.412;5.432;2022-10-12T11:57:30;102129.59;;;13.16;61.92
74075;BME280;62428;51.412;5.432;2022-10-12T12:00:03;102135.25;;;13.20;63.55
74075;BME280;62428;51.412;5.432;2022-10-12T12:04:57;102136.84;;;13.21;62.97
74075;BME280;62428;51.412;5.432;2022-10-12T12:15:38;102119.03;;;13.20;62.62
74075;BME280;62428;51.412;5.432;2022-10-12T12:18:23;102131.72;;;13.19;63.45
74075;BME280;62428;51.412;5.432;2022-10-12T12:21:03;102125.78;;;13.17;63.64
74075;BME280;62428;51.412;5.432;2022-10-12T12:23:52;102129.28;;;13.18;64.31
74075;BME280;62428;51.412;5.432;2022-10-12T12:26:20;102117.69;;;13.17;64.53
74075;BME280;62428;51.412;5.432;2022-10-12T12:28:47;102115.56;;;13.14;63.34
74075;BME280;62428;51.412;5.432;2022-10-12T12:31:36;102100.72;;;13.12;62.25
74075;BME280;62428;51.412;5.432;2022-10-12T12:36:33;102098.31;;;13.10;64.39
74075;BME280;62428;51.412;5.432;2022-10-12T12:39:00;102096.72;;;13.04;63.99
74075;BME280;62428;51.412;5.432;2022-10-12T12:44:42;102096.44;;;13.11;65.43
74075;BME280;62428;51.412;5.432;2022-10-12T12:52:02;102087.22;;;13.17;64.31
74075;BME280;62428;51.412;5.432;2022-10-12T12:54:29;102093.13;;;13.19;64.07
74075;BME280;62428;51.412;5.432;2022-10-12T13:05:27;102073.34;;;13.39;65.44
74075;BME280;62428;51.412;5.432;2022-10-12T13:14:00;102054.50;;;13.68;63.11
74075;BME280;62428;51.412;5.432;2022-10-12T13:19:10;102057.59;;;13.86;63.51
74075;BME280;62428;51.412;5.432;2022-10-12T13:21:39;102065.69;;;13.86;62.61
74075;BME280;62428;51.412;5.432;2022-10-12T13:24:15;102059.00;;;13.78;65.20
74075;BME280;62428;51.412;5.432;2022-10-12T13:26:44;102065.78;;;13.75;62.42
74075;BME280;62428;51.412;5.432;2022-10-12T13:29:18;102063.59;;;13.77;61.65
74075;BME280;62428;51.412;5.432;2022-10-12T13:31:45;102059.75;;;13.83;62.60
74075;BME280;62428;51.412;5.432;2022-10-12T13:34:22;102058.00;;;13.98;63.31
74075;BME280;62428;51.412;5.432;2022-10-12T13:36:56;102047.16;;;14.03;60.39
74075;BME280;62428;51.412;5.432;2022-10-12T13:39:22;102050.41;;;14.00;62.01
74075;BME280;62428;51.412;5.432;2022-10-12T13:41:52;102054.22;;;13.99;62.10
74075;BME280;62428;51.412;5.432;2022-10-12T13:44:27;102066.59;;;14.05;61.74
74075;BME280;62428;51.412;5.432;2022-10-12T13:46:57;102064.88;;;14.14;61.58
74075;BME280;62428;51.412;5.432;2022-10-12T13:49:24;102050.50;;;14.19;60.73
74075;BME280;62428;51.412;5.432;2022-10-12T13:54:38;102056.53;;;14.11;61.36
74075;BME280;62428;51.412;5.432;2022-10-12T14:00:08;102042.25;;;14.05;60.84
74075;BME280;62428;51.412;5.432;2022-10-12T14:02:35;102034.16;;;14.05;60.68
74075;BME280;62428;51.412;5.432;2022-10-12T14:05:02;102031.47;;;14.05;60.77
74075;BME280;62428;51.412;5.432;2022-10-12T14:07:34;102026.00;;;14.10;62.54
74075;BME280;62428;51.412;5.432;2022-10-12T14:10:33;102041.44;;;14.58;63.04
74075;BME280;62428;51.412;5.432;2022-10-12T14:12:59;102041.72;;;14.99;58.91
74075;BME280;62428;51.412;5.432;2022-10-12T14:15:31;102033.38;;;15.34;57.56
74075;BME280;62428;51.412;5.432;2022-10-12T14:17:57;102028.13;;;15.75;56.27
74075;BME280;62428;51.412;5.432;2022-10-12T14:20:30;102022.22;;;16.01;56.31
74075;BME280;62428;51.412;5.432;2022-10-12T14:22:58;102023.34;;;16.28;55.15
74075;BME280;62428;51.412;5.432;2022-10-12T14:25:28;102019.66;;;16.88;54.25
74075;BME280;62428;51.412;5.432;2022-10-12T14:28:20;102016.94;;;17.47;54.96
74075;BME280;62428;51.412;5.432;2022-10-12T14:30:51;102023.72;;;17.36;52.71
74075;BME280;62428;51.412;5.432;2022-10-12T14:35:44;102018.50;;;16.52;54.07
74075;BME280;62428;51.412;5.432;2022-10-12T14:38:38;102023.34;;;16.14;57.19
74075;BME280;62428;51.412;5.432;2022-10-12T14:41:37;102014.28;;;15.77;58.19
74075;BME280;62428;51.412;5.432;2022-10-12T14:46:39;102015.16;;;15.02;57.80